Duże zachmurzenie
Częściowe zachmurzenie
Częściowe zachmurzenie i kilka cirrusów
Częściowe zachmurzenie i cirrusy
Czyste niebo z niewielką liczbą niskich chmur i cirrusami
Częściowe zachmurzenie i cirrusy
Częściowe zachmurzenie i cirrusy
Częściowe zachmurzenie i cirrusy
Czyste niebo z niewielką liczbą niskich chmur i cirrusami
(°C)
19°
19°
20°
20°
21°
21°
21°
21°
20°
20°
19°
19°
17°
17°
16°
16°
15°
15°
(°C)
19°
20°
21°
21°
19°
18°
18°
16°
15°
W
WNW
NW
WNW
NW
NNW
N
N
N
(km/h)
9-17
9-17
9-17
9-16
8-15
7-15
7-12
8-11
8-11
(mm)
0
0
0
0
0
0
0
0
0
(%)
0
0
0
0
0
0
0
0
0

Wysokość słońca

/ 51.3°
sun-icon
UV 3
04:01
20:45
Pierwsza kwadra księżyca (93°)
12:21
00:47

METAR dla 51.82°N 39.23°E (UUOO)

Czas Warunki Temperatura/
Punkt rosy
Wiatr Widzialność Pogoda Chmury Ciśnienie Zmień Surowy
MVFR 19°C / 15°C 250º variable 220º to 290º 6kt 9700m - Broken Clouds 2900ft 1012 No Significant change. Runway 30: Damp, 51-100% contamination with <1mm, friction coefficient 0.60. UUOO 141100Z 25003MPS 220V290 9999 BKN029 19/15 Q1012 R30/190060 NOSIG RMK QFE746
MVFR 19°C / 15°C 280º 6kt 9700m - Broken Clouds 2200ft 1012 No Significant change. Runway 30: Damp, 51-100% contamination with <1mm, friction coefficient 0.60. UUOO 141030Z 28003MPS 9999 BKN022 19/15 Q1012 R30/190060 NOSIG RMK QFE746
MVFR 19°C / 15°C 250º variable 180º to 300º 4kt 9700m - Broken Clouds 1700ft 1012 No Significant change. Runway 30: Damp, 51-100% contamination with <1mm, friction coefficient 0.60. UUOO 141000Z 25002MPS 180V300 9999 BKN017 19/15 Q1012 R30/190060 NOSIG RMK QFE746
MVFR 18°C / 15°C 240º 4kt 9700m - Broken Clouds 1700ft 1012 No Significant change. Runway 30: Damp, 51-100% contamination with <1mm, friction coefficient 0.60. UUOO 140930Z 24002MPS 9999 BKN017 18/15 Q1012 R30/190060 NOSIG RMK QFE746
MVFR 19°C / 15°C 260º variable 230º to 300º 4kt 9700m - Broken Clouds 1900ft 1012 No Significant change. Runway 30: Damp, 51-100% contamination with <1mm, friction coefficient 0.60. UUOO 140900Z 26002MPS 230V300 9999 BKN019 19/15 Q1012 R30/190060 NOSIG RMK QFE746
MVFR 18°C / 15°C 280º 4kt 9700m - Overcast 1700ft 1012 No Significant change. Runway 30: Damp, 51-100% contamination with <1mm, friction coefficient 0.60. UUOO 140830Z 28002MPS 9999 OVC017 18/15 Q1012 R30/190060 NOSIG RMK QFE746
MVFR 18°C / 15°C 260º 4kt 9700m - Overcast 1800ft 1012 No Significant change. Runway 30: Damp, 51-100% contamination with <1mm, friction coefficient 0.60. UUOO 140800Z 26002MPS 9999 OVC018 18/15 Q1012 R30/190060 NOSIG RMK QFE746
MVFR 17°C / 15°C 280º 6kt 9700m - Overcast 1100ft 1012 No Significant change. Runway 30: Damp, 51-100% contamination with <1mm, friction coefficient 0.60. UUOO 140730Z 28003MPS 9999 OVC011 17/15 Q1012 R30/190060 NOSIG RMK QFE746
MVFR 17°C / 15°C 270º 6kt 9700m - Overcast 1100ft 1012 No Significant change. Runway 30: Damp, 51-100% contamination with <1mm, friction coefficient 0.60. UUOO 140700Z 27003MPS 9999 OVC011 17/15 Q1012 R30/190060 NOSIG RMK QFE746
MVFR 17°C / 15°C 260º variable 200º to 290º 4kt 9700m - Overcast 1200ft 1012 No Significant change. Runway 30: Damp, 51-100% contamination with <1mm, friction coefficient 0.60. UUOO 140630Z 26002MPS 200V290 9999 OVC012 17/15 Q1012 R30/190060 NOSIG RMK QFE746
MVFR 17°C / 15°C 250º 4kt 9700m - Overcast 1200ft 1012 No Significant change. Runway 30: Damp, 51-100% contamination with <1mm, friction coefficient 0.60. UUOO 140600Z 25002MPS 9999 OVC012 17/15 Q1012 R30/190060 NOSIG RMK QFE746
MVFR 17°C / 15°C 280º variable 240º to 310º 4kt 9700m - Overcast 1100ft 1012 No Significant change. Runway 30: Damp, 51-100% contamination with <1mm, friction coefficient 0.60. UUOO 140542Z 28002MPS 240V310 9999 OVC011 17/15 Q1012 R30/190060 NOSIG RMK QFE745
MVFR 16°C / 15°C 2kt 9700m - Scattered Clouds 800ft
Overcast 1700ft
1012 No Significant change. Runway 30: Damp, 51-100% contamination with <1mm, friction coefficient 0.60. UUOO 140500Z VRB01MPS 9999 SCT008 OVC017 16/15 Q1012 R30/190060 NOSIG RMK QFE745
MVFR 16°C / 15°C 270º 4kt 9000m - Overcast 1100ft 1011 No Significant change. Runway 30: Damp, 51-100% contamination with <1mm, friction coefficient 0.60. UUOO 140430Z 27002MPS 9000 OVC011 16/15 Q1011 R30/190060 NOSIG RMK QFE745
MVFR 16°C / 15°C 290º 6kt 9000m - Overcast 1600ft 1011 No Significant change. Runway 30: Damp, 51-100% contamination with <1mm, friction coefficient 0.60. UUOO 140400Z 29003MPS 9000 OVC016 16/15 Q1011 R30/190060 NOSIG RMK QFE745
MVFR 15°C / 15°C 280º 6kt 6000m Light Drizzle 0.20mm precipitation Overcast 1300ft 1011 No Significant change. Runway 30: Damp, 51-100% contamination with <1mm, friction coefficient 0.60. UUOO 140330Z 28003MPS 6000 -DZ OVC013 15/15 Q1011 R30/190060 NOSIG RMK QFE745
IFR 15°C / 15°C 280º 6kt 3700m Light Drizzle 0.20mm precipitation Overcast 800ft 1011 Temporary: Visibility 1400. Mist . RMK QFE745 . Runway 30: Damp, 51-100% contamination with <1mm, friction coefficient 0.60. UUOO 140300Z 28003MPS 3700 -DZ OVC008 15/15 Q1011 R30/190060 TEMPO 1400 BR RMK QFE745
IFR 16°C / 15°C 290º 8kt 9000m - Overcast 800ft 1011 No Significant change. Runway 30: Damp, 51-100% contamination with <1mm, friction coefficient 0.60. UUOO 140230Z 29004MPS 9000 OVC008 16/15 Q1011 R30/190060 NOSIG RMK QFE745
MVFR 16°C / 15°C 300º 8kt 9700m - Overcast 1000ft 1011 No Significant change. Runway 30: Damp, 51-100% contamination with <1mm, friction coefficient 0.60. UUOO 140200Z 30004MPS 9999 OVC010 16/15 Q1011 R30/190060 NOSIG RMK QFE745
IFR 16°C / 14°C 310º 8kt 9700m - Overcast 900ft 1011 No Significant change. Runway 30: Damp, 51-100% contamination with <1mm, friction coefficient 0.60. UUOO 140148Z 31004MPS 9999 OVC009 16/14 Q1011 R30/190060 NOSIG RMK QFE745
MVFR 16°C / 14°C 300º 8kt 9700m - Overcast 1000ft 1011 No Significant change. Runway 30: Damp, 51-100% contamination with <1mm, friction coefficient 0.60. UUOO 140130Z 30004MPS 9999 OVC010 16/14 Q1011 R30/190060 NOSIG RMK QFE745
MVFR 16°C / 14°C 300º 10kt 9700m - Overcast 1200ft 1010 No Significant change. Runway 30: Damp, 51-100% contamination with <1mm, friction coefficient 0.60. UUOO 140100Z 30005MPS 9999 OVC012 16/14 Q1010 R30/190060 NOSIG RMK QFE744
MVFR 16°C / 14°C 270º 10kt 9700m - Broken Clouds 1200ft 1011 No Significant change. Runway 30: Damp, 51-100% contamination with <1mm, friction coefficient 0.60. UUOO 140030Z 27005MPS 9999 BKN012 16/14 Q1011 R30/190060 NOSIG RMK QFE744
MVFR 17°C / 14°C 290º 8kt 9700m - Broken Clouds 1100ft 1010 No Significant change. Runway 30: Damp, 51-100% contamination with <1mm, friction coefficient 0.60. UUOO 140000Z 29004MPS 9999 BKN011 17/14 Q1010 R30/190060 NOSIG RMK QFE744

MVFR

19°C / 15°C

[Więcej]
Wiatr 250º variable 220º to 290º 6kt
Widzialność 9700m
Pogoda -
Chmury Broken Clouds 2900ft
Ciśnienie 1012
Zmień No Significant change. Runway 30: Damp, 51-100% contamination with <1mm, friction coefficient 0.60.
Surowy UUOO 141100Z 25003MPS 220V290 9999 BKN029 19/15 Q1012 R30/190060 NOSIG RMK QFE746

MVFR

19°C / 15°C

[Więcej]
Wiatr 280º 6kt
Widzialność 9700m
Pogoda -
Chmury Broken Clouds 2200ft
Ciśnienie 1012
Zmień No Significant change. Runway 30: Damp, 51-100% contamination with <1mm, friction coefficient 0.60.
Surowy UUOO 141030Z 28003MPS 9999 BKN022 19/15 Q1012 R30/190060 NOSIG RMK QFE746

MVFR

19°C / 15°C

[Więcej]
Wiatr 250º variable 180º to 300º 4kt
Widzialność 9700m
Pogoda -
Chmury Broken Clouds 1700ft
Ciśnienie 1012
Zmień No Significant change. Runway 30: Damp, 51-100% contamination with <1mm, friction coefficient 0.60.
Surowy UUOO 141000Z 25002MPS 180V300 9999 BKN017 19/15 Q1012 R30/190060 NOSIG RMK QFE746

MVFR

18°C / 15°C

[Więcej]
Wiatr 240º 4kt
Widzialność 9700m
Pogoda -
Chmury Broken Clouds 1700ft
Ciśnienie 1012
Zmień No Significant change. Runway 30: Damp, 51-100% contamination with <1mm, friction coefficient 0.60.
Surowy UUOO 140930Z 24002MPS 9999 BKN017 18/15 Q1012 R30/190060 NOSIG RMK QFE746

MVFR

19°C / 15°C

[Więcej]
Wiatr 260º variable 230º to 300º 4kt
Widzialność 9700m
Pogoda -
Chmury Broken Clouds 1900ft
Ciśnienie 1012
Zmień No Significant change. Runway 30: Damp, 51-100% contamination with <1mm, friction coefficient 0.60.
Surowy UUOO 140900Z 26002MPS 230V300 9999 BKN019 19/15 Q1012 R30/190060 NOSIG RMK QFE746

MVFR

18°C / 15°C

[Więcej]
Wiatr 280º 4kt
Widzialność 9700m
Pogoda -
Chmury Overcast 1700ft
Ciśnienie 1012
Zmień No Significant change. Runway 30: Damp, 51-100% contamination with <1mm, friction coefficient 0.60.
Surowy UUOO 140830Z 28002MPS 9999 OVC017 18/15 Q1012 R30/190060 NOSIG RMK QFE746

MVFR

18°C / 15°C

[Więcej]
Wiatr 260º 4kt
Widzialność 9700m
Pogoda -
Chmury Overcast 1800ft
Ciśnienie 1012
Zmień No Significant change. Runway 30: Damp, 51-100% contamination with <1mm, friction coefficient 0.60.
Surowy UUOO 140800Z 26002MPS 9999 OVC018 18/15 Q1012 R30/190060 NOSIG RMK QFE746

MVFR

17°C / 15°C

[Więcej]
Wiatr 280º 6kt
Widzialność 9700m
Pogoda -
Chmury Overcast 1100ft
Ciśnienie 1012
Zmień No Significant change. Runway 30: Damp, 51-100% contamination with <1mm, friction coefficient 0.60.
Surowy UUOO 140730Z 28003MPS 9999 OVC011 17/15 Q1012 R30/190060 NOSIG RMK QFE746

MVFR

17°C / 15°C

[Więcej]
Wiatr 270º 6kt
Widzialność 9700m
Pogoda -
Chmury Overcast 1100ft
Ciśnienie 1012
Zmień No Significant change. Runway 30: Damp, 51-100% contamination with <1mm, friction coefficient 0.60.
Surowy UUOO 140700Z 27003MPS 9999 OVC011 17/15 Q1012 R30/190060 NOSIG RMK QFE746

MVFR

17°C / 15°C

[Więcej]
Wiatr 260º variable 200º to 290º 4kt
Widzialność 9700m
Pogoda -
Chmury Overcast 1200ft
Ciśnienie 1012
Zmień No Significant change. Runway 30: Damp, 51-100% contamination with <1mm, friction coefficient 0.60.
Surowy UUOO 140630Z 26002MPS 200V290 9999 OVC012 17/15 Q1012 R30/190060 NOSIG RMK QFE746

MVFR

17°C / 15°C

[Więcej]
Wiatr 250º 4kt
Widzialność 9700m
Pogoda -
Chmury Overcast 1200ft
Ciśnienie 1012
Zmień No Significant change. Runway 30: Damp, 51-100% contamination with <1mm, friction coefficient 0.60.
Surowy UUOO 140600Z 25002MPS 9999 OVC012 17/15 Q1012 R30/190060 NOSIG RMK QFE746

MVFR

17°C / 15°C

[Więcej]
Wiatr 280º variable 240º to 310º 4kt
Widzialność 9700m
Pogoda -
Chmury Overcast 1100ft
Ciśnienie 1012
Zmień No Significant change. Runway 30: Damp, 51-100% contamination with <1mm, friction coefficient 0.60.
Surowy UUOO 140542Z 28002MPS 240V310 9999 OVC011 17/15 Q1012 R30/190060 NOSIG RMK QFE745

MVFR

16°C / 15°C

[Więcej]
Wiatr 2kt
Widzialność 9700m
Pogoda -
Chmury Scattered Clouds 800ft
Overcast 1700ft
Ciśnienie 1012
Zmień No Significant change. Runway 30: Damp, 51-100% contamination with <1mm, friction coefficient 0.60.
Surowy UUOO 140500Z VRB01MPS 9999 SCT008 OVC017 16/15 Q1012 R30/190060 NOSIG RMK QFE745

MVFR

16°C / 15°C

[Więcej]
Wiatr 270º 4kt
Widzialność 9000m
Pogoda -
Chmury Overcast 1100ft
Ciśnienie 1011
Zmień No Significant change. Runway 30: Damp, 51-100% contamination with <1mm, friction coefficient 0.60.
Surowy UUOO 140430Z 27002MPS 9000 OVC011 16/15 Q1011 R30/190060 NOSIG RMK QFE745

MVFR

16°C / 15°C

[Więcej]
Wiatr 290º 6kt
Widzialność 9000m
Pogoda -
Chmury Overcast 1600ft
Ciśnienie 1011
Zmień No Significant change. Runway 30: Damp, 51-100% contamination with <1mm, friction coefficient 0.60.
Surowy UUOO 140400Z 29003MPS 9000 OVC016 16/15 Q1011 R30/190060 NOSIG RMK QFE745

MVFR

15°C / 15°C

[Więcej]
Wiatr 280º 6kt
Widzialność 6000m
Pogoda Light Drizzle 0.20mm precipitation
Chmury Overcast 1300ft
Ciśnienie 1011
Zmień No Significant change. Runway 30: Damp, 51-100% contamination with <1mm, friction coefficient 0.60.
Surowy UUOO 140330Z 28003MPS 6000 -DZ OVC013 15/15 Q1011 R30/190060 NOSIG RMK QFE745

IFR

15°C / 15°C

[Więcej]
Wiatr 280º 6kt
Widzialność 3700m
Pogoda Light Drizzle 0.20mm precipitation
Chmury Overcast 800ft
Ciśnienie 1011
Zmień Temporary: Visibility 1400. Mist . RMK QFE745 . Runway 30: Damp, 51-100% contamination with <1mm, friction coefficient 0.60.
Surowy UUOO 140300Z 28003MPS 3700 -DZ OVC008 15/15 Q1011 R30/190060 TEMPO 1400 BR RMK QFE745

IFR

16°C / 15°C

[Więcej]
Wiatr 290º 8kt
Widzialność 9000m
Pogoda -
Chmury Overcast 800ft
Ciśnienie 1011
Zmień No Significant change. Runway 30: Damp, 51-100% contamination with <1mm, friction coefficient 0.60.
Surowy UUOO 140230Z 29004MPS 9000 OVC008 16/15 Q1011 R30/190060 NOSIG RMK QFE745

MVFR

16°C / 15°C

[Więcej]
Wiatr 300º 8kt
Widzialność 9700m
Pogoda -
Chmury Overcast 1000ft
Ciśnienie 1011
Zmień No Significant change. Runway 30: Damp, 51-100% contamination with <1mm, friction coefficient 0.60.
Surowy UUOO 140200Z 30004MPS 9999 OVC010 16/15 Q1011 R30/190060 NOSIG RMK QFE745

IFR

16°C / 14°C

[Więcej]
Wiatr 310º 8kt
Widzialność 9700m
Pogoda -
Chmury Overcast 900ft
Ciśnienie 1011
Zmień No Significant change. Runway 30: Damp, 51-100% contamination with <1mm, friction coefficient 0.60.
Surowy UUOO 140148Z 31004MPS 9999 OVC009 16/14 Q1011 R30/190060 NOSIG RMK QFE745

MVFR

16°C / 14°C

[Więcej]
Wiatr 300º 8kt
Widzialność 9700m
Pogoda -
Chmury Overcast 1000ft
Ciśnienie 1011
Zmień No Significant change. Runway 30: Damp, 51-100% contamination with <1mm, friction coefficient 0.60.
Surowy UUOO 140130Z 30004MPS 9999 OVC010 16/14 Q1011 R30/190060 NOSIG RMK QFE745

MVFR

16°C / 14°C

[Więcej]
Wiatr 300º 10kt
Widzialność 9700m
Pogoda -
Chmury Overcast 1200ft
Ciśnienie 1010
Zmień No Significant change. Runway 30: Damp, 51-100% contamination with <1mm, friction coefficient 0.60.
Surowy UUOO 140100Z 30005MPS 9999 OVC012 16/14 Q1010 R30/190060 NOSIG RMK QFE744

MVFR

16°C / 14°C

[Więcej]
Wiatr 270º 10kt
Widzialność 9700m
Pogoda -
Chmury Broken Clouds 1200ft
Ciśnienie 1011
Zmień No Significant change. Runway 30: Damp, 51-100% contamination with <1mm, friction coefficient 0.60.
Surowy UUOO 140030Z 27005MPS 9999 BKN012 16/14 Q1011 R30/190060 NOSIG RMK QFE744

MVFR

17°C / 14°C

[Więcej]
Wiatr 290º 8kt
Widzialność 9700m
Pogoda -
Chmury Broken Clouds 1100ft
Ciśnienie 1010
Zmień No Significant change. Runway 30: Damp, 51-100% contamination with <1mm, friction coefficient 0.60.
Surowy UUOO 140000Z 29004MPS 9999 BKN011 17/14 Q1010 R30/190060 NOSIG RMK QFE744

TAF dla 51.82°N 39.23°E (UUOO)

From till


From till Wind 280º 6kt. Visibility 9700m. Broken Clouds 1600ft.

Surowy: TAF UUOO 140800Z 1409/1418 28003MPS 9999 BKN016

Radar i prognoza opadów na teraz dla 51.82°N 39.23°E

Mżawka
Lekkie
Umiarkowane
Intensywne
Bardzo Intensywne
Grad

Wskaźnik lokalizacji jest umieszczony na 51.82°N 39.23°E. Ta animacja pokazuje radar opadów dla wybranego zakresu czasu, jak również prognozę 2h. Pomarańczowe krzyże oznaczają wyładowania atmosferyczne. Dane dostarczone przez nowcast.de (dostępne w USA, Europie, Australii). Mżawka lub lekki opad śniegu może być niewidoczny dla radaru. Intensywność opadów jest oznaczona kolorami, od turkusowego do czerwonego.

Aktualne zdjęcia satelitarne i zdjęcia opadów deszczu dla 51.82°N 39.23°E

Wskaźnik lokalizacji znajduje się na 51.82°N 39.23°E. [Więcej]

Obraz satelitarny w czasie rzeczywistym łączy światło widzialne w ciągu dnia z promieniowaniem podczerwonym w nocy. W nocy obraz nie jest ciemny, ponieważ promieniowanie podczerwone może wykrywać różnice temperatur. Niestety niskie chmury i mgłę trudno odróżnić od temperatury gruntu, przez co mogą być prawie niewidoczne w nocy. Zdjęcia satelitarne Meteosat dla Europy są aktualizowane w czasie rzeczywistym co 5 minut. Obrazy GOES-16/GOES-17 (Ameryka Północna i Południowa) oraz Himawari (Azja) są aktualizowane co 10 minut.

Opady są szacowane na podstawie radarów i satelitów. Szacunki opadów z satelitów są mniej dokładne w nocy niż w ciągu dnia.

© 2024 meteoblue, NOAA Satellites GOES-16 and EUMETSAT. Dane dot. błyskawic dostarczone przez nowcast.

Powrót do góry
×
Hej tam,
wygląda na to, że używasz blokera reklam.

Reklama jest niezbędna do utrzymania naszej darmowej strony internetowej z wyjątkową szczegółowością i dokładnością.

Proszę whitelist www.meteoblue.com na swoim blokerze reklam lub rozważyć zakup jednego z naszych produktów:

Masz już subskrypcję?
Więc proszę login.